createdAt,value
2019-03-02T00:00:02.088Z,43.30
2019-03-02T00:02:12.349Z,47.97
2019-03-02T00:04:23.200Z,47.67
2019-03-02T00:06:35.716Z,44.63
2019-03-02T00:08:46.726Z,47.90
2019-03-02T00:10:57.506Z,48.53
2019-03-02T00:13:08.733Z,46.20
2019-03-02T00:15:21.043Z,48.27
2019-03-02T00:17:31.846Z,49.13
2019-03-02T00:19:42.685Z,51.60
2019-03-02T00:21:53.441Z,48.53
2019-03-02T00:24:04.252Z,47.67
2019-03-02T00:26:35.320Z,51.17
2019-03-02T00:28:46.150Z,52.17
2019-03-02T00:30:57.884Z,54.57
2019-03-02T00:33:11.458Z,48.73
2019-03-02T00:35:22.481Z,49.27
2019-03-02T00:37:33.768Z,47.13
2019-03-02T00:39:46.029Z,47.47
2019-03-02T00:41:56.907Z,49.63
2019-03-02T00:44:51.234Z,49.67
2019-03-02T00:47:02.172Z,51.83
2019-03-02T00:49:13.010Z,48.33
2019-03-02T00:51:23.812Z,51.90
2019-03-02T00:53:35.582Z,47.53
2019-03-02T00:55:47.322Z,51.07
2019-03-02T00:57:58.117Z,55.10
2019-03-02T01:00:28.804Z,52.60
2019-03-02T01:02:40.446Z,55.40
2019-03-02T01:04:52.556Z,47.07
2019-03-02T01:09:35.694Z,50.83
2019-03-02T01:11:46.513Z,53.07
2019-03-02T01:13:57.652Z,51.00
2019-03-02T01:16:10.041Z,46.83
2019-03-02T01:18:21.266Z,50.67
2019-03-02T01:20:33.588Z,46.57
2019-03-02T01:22:44.406Z,46.57
2019-03-02T01:24:55.212Z,47.63
2019-03-02T01:27:06.051Z,48.73
2019-03-02T01:29:19.117Z,49.30
2019-03-02T01:31:29.655Z,47.90
2019-03-02T01:33:40.454Z,42.37
2019-03-02T01:35:53.931Z,45.90
2019-03-02T01:38:04.019Z,39.63
2019-03-02T01:40:14.949Z,42.13
2019-03-02T01:42:29.395Z,37.87
2019-03-02T01:44:38.570Z,38.83
2019-03-02T01:46:49.403Z,42.07
2019-03-02T01:49:01.548Z,36.70
2019-03-02T01:51:12.922Z,38.37
2019-03-02T01:53:23.880Z,36.23
2019-03-02T01:55:34.668Z,36.23
2019-03-02T01:57:48.857Z,38.90
2019-03-02T01:59:58.180Z,36.87
2019-03-02T02:02:09.084Z,38.90
2019-03-02T02:04:22.735Z,37.93
2019-03-02T02:06:32.609Z,36.97
2019-03-02T02:08:43.421Z,33.87
2019-03-02T02:10:54.209Z,33.37
2019-03-02T02:13:06.306Z,38.83
2019-03-02T02:15:37.787Z,34.33
2019-03-02T02:17:49.565Z,37.67
2019-03-02T02:20:01.538Z,35.70
2019-03-02T02:22:12.352Z,39.43
2019-03-02T02:24:24.825Z,37.23
2019-03-02T02:26:35.982Z,38.80
2019-03-02T02:28:46.784Z,38.20
2019-03-02T02:31:01.624Z,41.10
2019-03-02T02:33:10.328Z,35.03
2019-03-02T02:35:21.134Z,40.77
2019-03-02T02:37:36.559Z,42.20
2019-03-02T02:39:44.776Z,38.17
2019-03-02T02:41:59.950Z,39.43
2019-03-02T02:44:08.269Z,36.17
2019-03-02T02:46:19.056Z,37.90
2019-03-02T02:48:31.227Z,37.00
2019-03-02T02:50:43.090Z,36.63
2019-03-02T02:52:55.280Z,41.47
2019-03-02T02:55:47.749Z,41.10
2019-03-02T02:57:58.559Z,42.17
2019-03-02T03:00:55.044Z,45.23
2019-03-02T03:03:03.756Z,40.03
2019-03-02T03:05:56.221Z,41.13
2019-03-02T03:08:07.024Z,39.63
2019-03-02T03:13:01.853Z,40.57
2019-03-02T03:15:09.881Z,40.93
2019-03-02T03:17:20.778Z,37.70
2019-03-02T03:19:32.416Z,38.40
2019-03-02T03:21:44.365Z,38.80
2019-03-02T03:24:02.974Z,39.53
2019-03-02T03:26:07.994Z,41.30
2019-03-02T03:28:18.812Z,38.37
2019-03-02T03:30:35.680Z,35.87
2019-03-02T03:32:54.614Z,35.17
2019-03-02T03:34:55.039Z,36.67
2019-03-02T03:37:08.311Z,36.67
2019-03-02T03:39:18.535Z,37.17
2019-03-02T03:41:29.374Z,38.57
2019-03-02T03:43:42.865Z,38.70
2019-03-02T03:45:52.950Z,33.73
2019-03-02T03:48:03.742Z,37.97
2019-03-02T03:50:15.842Z,41.97
2019-03-02T03:52:27.352Z,40.37
2019-03-02T03:54:40.978Z,36.03
2019-03-02T03:57:32.508Z,37.23
2019-03-02T03:59:43.421Z,39.27
2019-03-02T04:01:56.849Z,34.90
2019-03-02T04:04:06.933Z,34.50
2019-03-02T04:06:17.835Z,37.10
2019-03-02T04:08:29.862Z,36.10
2019-03-02T04:10:41.384Z,39.07
2019-03-02T04:12:52.190Z,35.00
2019-03-02T04:15:44.662Z,37.40
2019-03-02T04:17:55.483Z,41.43
2019-03-02T04:20:49.642Z,35.30
2019-03-02T04:23:42.314Z,36.20
2019-03-02T04:25:56.672Z,34.13
2019-03-02T04:28:05.832Z,35.70
2019-03-02T04:30:16.622Z,34.53
2019-03-02T04:32:28.852Z,35.77
2019-03-02T04:34:40.179Z,35.40
2019-03-02T04:36:50.966Z,35.03
2019-03-02T04:39:01.882Z,35.23
2019-03-02T04:41:12.690Z,37.70
2019-03-02T04:43:23.517Z,33.50
2019-03-02T04:45:36.462Z,34.57
2019-03-02T04:47:47.026Z,36.60
2019-03-02T04:49:57.844Z,37.57
2019-03-02T04:52:11.574Z,34.27
2019-03-02T04:54:21.388Z,31.63
2019-03-02T04:56:32.176Z,31.77
2019-03-02T04:58:43.629Z,32.57
2019-03-02T05:00:55.719Z,32.13
2019-03-02T05:03:06.519Z,31.33
2019-03-02T05:05:17.345Z,30.37
2019-03-02T05:07:30.160Z,30.33
2019-03-02T05:09:40.873Z,31.47
2019-03-02T05:11:51.701Z,33.70
2019-03-02T05:14:04.288Z,32.73
2019-03-02T05:16:15.294Z,30.73
2019-03-02T05:18:26.117Z,31.17
2019-03-02T05:20:37.805Z,26.57
2019-03-02T05:22:50.722Z,31.43
2019-03-02T05:25:43.994Z,32.03
2019-03-02T05:27:54.794Z,29.20
2019-03-02T05:30:26.860Z,28.13
2019-03-02T05:32:38.201Z,30.17
2019-03-02T05:34:49.028Z,25.07
2019-03-02T05:37:02.809Z,30.10
2019-03-02T05:39:13.844Z,22.10
2019-03-02T05:41:25.297Z,30.13
2019-03-02T05:43:36.094Z,25.00
2019-03-02T05:45:46.925Z,27.77
2019-03-02T05:48:01.012Z,27.63
2019-03-02T05:50:52.115Z,29.93
2019-03-02T05:53:03.026Z,24.63
2019-03-02T05:55:18.053Z,31.73
2019-03-02T05:57:26.536Z,25.53
2019-03-02T05:59:37.338Z,22.77
2019-03-02T06:01:48.182Z,27.00
2019-03-02T06:03:58.987Z,25.80
2019-03-02T06:06:09.821Z,24.73
2019-03-02T06:08:40.509Z,26.87
2019-03-02T06:10:51.338Z,24.00
2019-03-02T06:13:02.149Z,25.80
2019-03-02T06:18:07.733Z,25.70
2019-03-02T06:20:18.302Z,25.97
2019-03-02T06:22:29.117Z,24.37
2019-03-02T06:24:41.025Z,23.87
2019-03-02T06:29:32.741Z,22.33
2019-03-02T06:31:44.260Z,22.03
2019-03-02T06:33:55.303Z,23.07
2019-03-02T06:36:08.750Z,24.10
2019-03-02T06:38:18.864Z,25.97
2019-03-02T06:40:29.676Z,24.53
2019-03-02T06:42:41.940Z,26.47
2019-03-02T06:44:53.266Z,25.87
2019-03-02T06:47:05.704Z,27.00
2019-03-02T06:49:19.857Z,25.27
2019-03-02T06:51:29.509Z,22.93
2019-03-02T06:53:40.333Z,28.60
2019-03-02T06:55:51.131Z,25.47
2019-03-02T06:58:01.973Z,24.43
2019-03-02T07:00:54.420Z,26.73
2019-03-02T07:03:06.706Z,31.57
2019-03-02T07:05:17.938Z,28.63
2019-03-02T07:07:28.734Z,28.00
2019-03-02T07:09:41.807Z,29.70
2019-03-02T07:11:52.269Z,27.43
2019-03-02T07:14:03.092Z,25.30
2019-03-02T07:16:16.589Z,29.10
2019-03-02T07:18:46.491Z,27.77
2019-03-02T07:20:59.637Z,27.47
2019-03-02T07:23:10.038Z,29.37
2019-03-02T07:25:20.995Z,30.57
2019-03-02T07:27:31.788Z,28.73
2019-03-02T07:29:42.719Z,29.33
2019-03-02T07:31:53.520Z,29.43
2019-03-02T07:34:04.829Z,25.27
2019-03-02T07:36:17.069Z,30.77
2019-03-02T07:38:27.854Z,27.70
2019-03-02T07:40:41.304Z,36.37
2019-03-02T07:42:51.381Z,33.53
2019-03-02T07:45:43.853Z,36.30
2019-03-02T07:47:56.023Z,32.90
2019-03-02T07:50:49.059Z,30.17
2019-03-02T07:52:59.880Z,35.30
2019-03-02T07:55:53.623Z,34.90
2019-03-02T07:58:05.082Z,33.60
2019-03-02T08:00:57.558Z,31.30
2019-03-02T08:03:08.372Z,34.90
2019-03-02T08:05:19.294Z,34.03
2019-03-02T08:07:30.128Z,40.70
2019-03-02T08:09:40.936Z,36.43
2019-03-02T08:12:33.406Z,36.90
2019-03-02T08:14:44.485Z,37.90
2019-03-02T08:16:56.971Z,31.10
2019-03-02T08:19:07.786Z,31.63
2019-03-02T08:21:18.634Z,36.33
2019-03-02T08:23:29.489Z,34.93
2019-03-02T08:25:40.295Z,36.03
2019-03-02T08:27:51.701Z,35.37
2019-03-02T08:30:45.580Z,32.83
2019-03-02T08:32:57.895Z,33.23
2019-03-02T08:35:50.755Z,33.67
2019-03-02T08:38:05.068Z,35.90
2019-03-02T08:40:56.235Z,35.63
2019-03-02T08:43:08.801Z,32.73
2019-03-02T08:45:19.688Z,33.77
2019-03-02T08:47:30.515Z,31.87
2019-03-02T08:49:41.868Z,32.57
2019-03-02T08:51:54.040Z,28.93
2019-03-02T08:54:04.852Z,30.13
2019-03-02T08:56:15.699Z,30.10
2019-03-02T08:58:26.750Z,26.50
2019-03-02T09:00:38.989Z,29.73
2019-03-02T09:02:50.474Z,31.47
2019-03-02T09:05:01.287Z,28.47
2019-03-02T09:07:12.186Z,32.93
2019-03-02T09:09:23.109Z,30.13
2019-03-02T09:11:33.944Z,29.53
2019-03-02T09:13:44.775Z,28.43
2019-03-02T09:15:55.587Z,26.37
2019-03-02T09:18:06.521Z,30.77
2019-03-02T09:20:17.446Z,24.57
2019-03-02T09:22:28.294Z,25.47
2019-03-02T09:24:39.090Z,25.20
2019-03-02T09:26:49.890Z,24.43
2019-03-02T09:29:00.755Z,22.77
2019-03-02T09:31:53.202Z,24.60
2019-03-02T09:34:04.364Z,23.00
2019-03-02T09:36:16.755Z,21.27
2019-03-02T09:38:27.584Z,23.40
2019-03-02T09:40:38.419Z,21.90
2019-03-02T09:42:49.332Z,19.57
2019-03-02T09:45:00.319Z,20.37
2019-03-02T09:47:12.739Z,20.40
2019-03-02T09:49:23.924Z,18.70
2019-03-02T09:51:34.746Z,18.33
2019-03-02T09:53:45.678Z,18.07
2019-03-02T09:55:58.146Z,21.13
2019-03-02T09:58:09.225Z,19.23
2019-03-02T10:01:04.468Z,18.90
2019-03-02T10:03:14.444Z,17.70
2019-03-02T10:05:26.299Z,17.43
2019-03-02T10:07:39.236Z,19.13
2019-03-02T10:09:50.942Z,18.63
2019-03-02T10:12:01.869Z,18.13
2019-03-02T10:14:32.596Z,17.43
2019-03-02T10:16:43.405Z,17.00
2019-03-02T10:18:54.221Z,17.50
2019-03-02T10:21:05.167Z,18.53
2019-03-02T10:23:15.963Z,17.97
2019-03-02T10:25:32.023Z,19.97
2019-03-02T10:27:39.587Z,19.60
2019-03-02T10:29:50.404Z,19.17
2019-03-02T10:32:01.247Z,16.20
2019-03-02T10:34:12.101Z,17.27
2019-03-02T10:36:25.776Z,16.10
2019-03-02T10:38:35.679Z,16.07
2019-03-02T10:40:46.569Z,15.77
2019-03-02T10:42:57.377Z,16.90
2019-03-02T10:45:49.845Z,15.60
2019-03-02T10:48:00.650Z,17.73
2019-03-02T10:50:31.352Z,14.87
2019-03-02T10:52:42.180Z,14.57
2019-03-02T10:54:53.010Z,14.87
2019-03-02T10:57:03.863Z,15.37
2019-03-02T10:59:15.529Z,14.93
2019-03-02T11:01:27.543Z,14.80
2019-03-02T11:03:38.358Z,14.10
2019-03-02T11:06:09.042Z,13.50
2019-03-02T11:08:39.947Z,13.20
2019-03-02T11:11:10.630Z,10.73
2019-03-02T11:13:51.844Z,10.73
2019-03-02T11:16:22.750Z,11.23
2019-03-02T11:18:53.432Z,10.27
2019-03-02T11:21:24.163Z,11.20
2019-03-02T11:23:57.534Z,11.03
2019-03-02T11:26:27.418Z,10.67
2019-03-02T11:28:58.167Z,9.73
2019-03-02T11:31:28.846Z,9.37
2019-03-02T11:33:59.854Z,10.03
2019-03-02T11:36:30.601Z,9.10
2019-03-02T11:39:01.488Z,12.30
2019-03-02T11:44:04.627Z,9.93
2019-03-02T11:46:35.320Z,10.93
2019-03-02T11:51:27.150Z,10.47
2019-03-02T11:56:26.659Z,11.37
2019-03-02T11:58:52.089Z,10.93
2019-03-02T12:01:22.852Z,10.80
2019-03-02T12:03:53.557Z,8.77
2019-03-02T12:06:24.345Z,11.73
2019-03-02T12:08:57.929Z,11.00
2019-03-02T12:13:49.980Z,14.37
2019-03-02T12:16:22.021Z,14.40
2019-03-02T12:18:54.173Z,11.33
2019-03-02T12:21:25.990Z,10.90
2019-03-02T12:23:56.677Z,10.20
2019-03-02T12:26:27.372Z,10.37
2019-03-02T12:28:58.042Z,11.40
2019-03-02T12:31:31.908Z,10.70
2019-03-02T12:34:01.343Z,10.57
2019-03-02T12:36:32.046Z,9.90
2019-03-02T12:39:02.737Z,11.00
2019-03-02T12:41:33.484Z,10.57
2019-03-02T12:44:04.174Z,14.43
2019-03-02T12:49:15.482Z,13.57
2019-03-02T12:51:46.165Z,11.70
2019-03-02T12:54:16.834Z,13.30
2019-03-02T12:56:47.535Z,11.47
2019-03-02T13:06:18.414Z,12.57
2019-03-02T13:08:49.230Z,13.30
2019-03-02T13:13:52.763Z,13.80
2019-03-02T13:16:25.065Z,15.30
2019-03-02T13:18:55.794Z,11.63
2019-03-02T13:21:26.478Z,13.67
2019-03-02T13:26:15.547Z,13.93
2019-03-02T13:28:46.439Z,15.10
2019-03-02T13:33:49.550Z,13.77
2019-03-02T13:36:20.216Z,10.97
2019-03-02T13:38:50.950Z,13.60
2019-03-02T13:41:30.078Z,14.37
2019-03-02T13:43:54.377Z,15.57
2019-03-02T13:46:25.077Z,15.23
2019-03-02T13:48:58.289Z,13.97
2019-03-02T13:51:30.014Z,14.67
2019-03-02T13:56:33.446Z,17.43
2019-03-02T14:01:36.526Z,16.13
2019-03-02T14:08:57.991Z,15.97
2019-03-02T14:11:28.699Z,13.77
2019-03-02T14:13:59.372Z,14.90
2019-03-02T14:19:05.866Z,16.10
2019-03-02T14:21:38.762Z,12.97
2019-03-02T14:24:10.225Z,12.97
2019-03-02T14:31:21.141Z,15.87
2019-03-02T14:33:51.838Z,15.20
2019-03-02T14:36:22.737Z,13.00
2019-03-02T14:43:35.863Z,12.67
2019-03-02T14:46:07.202Z,17.57
2019-03-02T14:53:15.476Z,10.37
2019-03-02T15:00:37.037Z,10.43
2019-03-02T15:03:07.736Z,9.27
2019-03-02T15:05:38.536Z,8.27
2019-03-02T15:08:09.276Z,11.77
2019-03-02T15:10:39.968Z,11.13
2019-03-02T15:13:10.702Z,9.40
2019-03-02T15:15:41.485Z,9.57
2019-03-02T15:20:44.576Z,7.47
2019-03-02T15:25:47.642Z,7.73
2019-03-02T15:28:18.340Z,9.17
2019-03-02T15:30:49.049Z,9.53
2019-03-02T15:33:19.720Z,10.90
2019-03-02T15:35:50.432Z,11.03
2019-03-02T15:38:21.129Z,11.40
2019-03-02T15:40:51.940Z,11.83
2019-03-02T15:43:22.756Z,11.00
2019-03-02T15:45:55.409Z,10.10
2019-03-02T15:50:58.460Z,9.43
2019-03-02T15:58:24.710Z,9.90
2019-03-02T16:01:17.218Z,10.03
2019-03-02T16:03:47.923Z,11.13
2019-03-02T16:06:19.640Z,10.60
2019-03-02T16:13:49.572Z,13.23
2019-03-02T16:16:14.890Z,10.07
2019-03-02T16:18:49.186Z,11.63
2019-03-02T16:21:19.586Z,10.43
2019-03-02T16:23:50.942Z,7.93
2019-03-02T16:26:21.666Z,9.80
2019-03-02T16:28:52.378Z,9.77
2019-03-02T16:33:55.441Z,9.43
2019-03-02T16:36:26.314Z,9.20
2019-03-02T16:38:57.024Z,11.93
2019-03-02T16:41:31.163Z,8.53
2019-03-02T16:44:03.218Z,10.27
2019-03-02T16:46:35.101Z,10.83
2019-03-02T16:49:06.147Z,9.00
2019-03-02T16:51:36.995Z,7.47
2019-03-02T16:54:07.678Z,8.17
2019-03-02T16:59:10.844Z,8.83
2019-03-02T17:01:41.518Z,9.00
2019-03-02T17:06:30.856Z,9.07
2019-03-02T17:09:01.559Z,9.63
2019-03-02T17:11:35.481Z,9.80
2019-03-02T17:14:09.221Z,7.37
2019-03-02T17:19:10.099Z,9.00
2019-03-02T17:21:40.903Z,8.37
2019-03-02T17:24:11.609Z,8.93
2019-03-02T17:29:14.756Z,10.23
2019-03-02T17:31:45.453Z,7.77
2019-03-02T17:36:41.713Z,8.23
2019-03-02T17:39:11.205Z,7.30
2019-03-02T17:46:47.113Z,11.13
2019-03-02T17:49:28.210Z,6.40
2019-03-02T17:54:14.074Z,7.10
2019-03-02T17:59:04.183Z,8.33
2019-03-02T18:01:36.625Z,8.77
2019-03-02T18:04:07.320Z,7.07
2019-03-02T18:06:38.129Z,8.23
2019-03-02T18:09:08.835Z,8.20
2019-03-02T18:11:39.574Z,10.97
2019-03-02T18:14:10.265Z,9.23
2019-03-02T18:16:41.398Z,7.43
2019-03-02T18:18:53.674Z,7.67
2019-03-02T18:21:04.516Z,8.83
2019-03-02T18:23:18.951Z,7.43
2019-03-02T18:25:28.326Z,10.20
2019-03-02T18:27:39.151Z,8.47
2019-03-02T18:29:50.172Z,8.37
2019-03-02T18:32:02.271Z,8.03
2019-03-02T18:36:49.779Z,8.10
2019-03-02T18:39:00.973Z,10.87
2019-03-02T18:41:12.329Z,8.73
2019-03-02T18:43:24.351Z,8.20
2019-03-02T18:45:35.868Z,7.87
2019-03-02T18:47:47.948Z,9.63
2019-03-02T18:50:18.627Z,9.13
2019-03-02T18:52:49.336Z,6.57
2019-03-02T18:55:00.284Z,6.33
2019-03-02T18:57:13.198Z,12.93
2019-03-02T18:59:23.911Z,9.10
2019-03-02T19:02:16.388Z,9.20
2019-03-02T19:05:09.756Z,7.80
2019-03-02T19:07:21.500Z,8.47
2019-03-02T19:09:33.335Z,8.53
2019-03-02T19:11:45.049Z,9.90
2019-03-02T19:13:55.853Z,10.47
2019-03-02T19:16:06.662Z,8.97
2019-03-02T19:18:17.511Z,9.63
2019-03-02T19:20:28.339Z,9.77
2019-03-02T19:22:39.218Z,6.73
2019-03-02T19:24:50.157Z,10.40
2019-03-02T19:27:01.000Z,8.00
2019-03-02T19:29:11.836Z,11.07
2019-03-02T19:31:22.780Z,8.10
2019-03-02T19:33:33.711Z,7.77
2019-03-02T19:35:44.540Z,9.50
2019-03-02T19:37:55.357Z,10.77
2019-03-02T19:40:47.806Z,8.63
2019-03-02T19:42:58.748Z,9.80
2019-03-02T19:45:51.234Z,8.67
2019-03-02T19:48:02.071Z,12.93
2019-03-02T19:50:32.812Z,8.80
2019-03-02T19:52:43.751Z,7.57
2019-03-02T19:54:54.595Z,9.63
2019-03-02T19:57:05.467Z,11.63
2019-03-02T19:59:16.301Z,10.90
2019-03-02T20:01:27.082Z,8.23
2019-03-02T20:03:38.213Z,9.03
2019-03-02T20:05:49.022Z,8.40
2019-03-02T20:07:59.851Z,9.23
2019-03-02T20:10:52.329Z,6.47
2019-03-02T20:13:03.152Z,9.80
2019-03-02T20:15:55.675Z,8.77
2019-03-02T20:18:06.494Z,5.83
2019-03-02T20:20:58.954Z,6.93
2019-03-02T20:23:09.806Z,9.07
2019-03-02T20:25:20.648Z,8.80
2019-03-02T20:27:31.486Z,5.07
2019-03-02T20:29:42.278Z,8.17
2019-03-02T20:31:53.132Z,8.40
2019-03-02T20:34:04.048Z,5.77
2019-03-02T20:36:14.894Z,9.47
2019-03-02T20:38:25.827Z,7.37
2019-03-02T20:40:36.658Z,5.83
2019-03-02T20:42:47.491Z,9.40
2019-03-02T20:44:58.320Z,5.70
2019-03-02T20:47:09.149Z,7.93
2019-03-02T20:49:19.957Z,8.47
2019-03-02T20:51:30.768Z,6.20
2019-03-02T20:53:41.755Z,5.13
2019-03-02T20:55:52.553Z,8.33
2019-03-02T20:58:03.516Z,5.77
2019-03-02T21:00:34.988Z,8.90
2019-03-02T21:02:45.833Z,5.33
2019-03-02T21:04:56.630Z,6.90
2019-03-02T21:07:07.459Z,6.87
2019-03-02T21:09:18.385Z,6.37
2019-03-02T21:11:29.212Z,6.77
2019-03-02T21:13:40.144Z,6.67
2019-03-02T21:15:50.970Z,5.17
2019-03-02T21:18:02.183Z,8.90
2019-03-02T21:20:54.635Z,6.70
2019-03-02T21:23:05.673Z,5.70
2019-03-02T21:25:16.702Z,6.37
2019-03-02T21:27:27.542Z,6.40
2019-03-02T21:29:38.354Z,7.50
2019-03-02T21:31:49.181Z,6.20
2019-03-02T21:34:00.026Z,6.03
2019-03-02T21:36:10.946Z,5.93
2019-03-02T21:38:21.777Z,4.13
2019-03-02T21:41:14.229Z,4.83
2019-03-02T21:43:25.089Z,3.20
2019-03-02T21:45:36.009Z,5.03
2019-03-02T21:47:47.161Z,6.47
2019-03-02T21:49:57.998Z,3.93
2019-03-02T21:55:01.083Z,3.77
2019-03-02T21:57:12.042Z,4.10
2019-03-02T21:59:22.885Z,4.20
2019-03-02T22:01:33.736Z,4.70
2019-03-02T22:03:44.596Z,3.30
2019-03-02T22:05:55.399Z,3.30
2019-03-02T22:08:06.228Z,4.10
2019-03-02T22:10:58.696Z,4.80
2019-03-02T22:13:09.525Z,5.30
2019-03-02T22:15:20.349Z,3.97
2019-03-02T22:17:31.149Z,5.13
2019-03-02T22:19:41.977Z,2.17
2019-03-02T22:21:52.792Z,3.03
2019-03-02T22:24:03.703Z,2.83
2019-03-02T22:26:36.288Z,3.77
2019-03-02T22:28:47.131Z,2.57
2019-03-02T22:30:57.957Z,3.27
2019-03-02T22:33:08.767Z,4.20
2019-03-02T22:35:19.701Z,2.70
2019-03-02T22:37:30.502Z,3.47
2019-03-02T22:39:41.340Z,3.07
2019-03-02T22:41:52.182Z,3.77
2019-03-02T22:44:03.101Z,1.77
2019-03-02T22:46:13.923Z,2.80
2019-03-02T22:48:24.724Z,1.53
2019-03-02T22:50:35.565Z,1.97
2019-03-02T22:52:46.515Z,2.67
2019-03-02T22:54:57.431Z,1.70
2019-03-02T22:57:08.272Z,1.90
2019-03-02T22:59:19.083Z,1.90
2019-03-02T23:02:09.672Z,1.37
2019-03-02T23:04:20.451Z,2.50
2019-03-02T23:06:31.266Z,2.47
2019-03-02T23:08:42.130Z,1.53
2019-03-02T23:10:52.933Z,2.03
2019-03-02T23:13:03.738Z,1.93
2019-03-02T23:15:56.193Z,2.53
2019-03-02T23:18:07.117Z,1.93
2019-03-02T23:20:18.054Z,1.33
2019-03-02T23:22:28.874Z,1.80
2019-03-02T23:24:39.671Z,3.50
2019-03-02T23:26:50.513Z,1.20
2019-03-02T23:29:01.340Z,1.17
2019-03-02T23:31:12.139Z,1.23
2019-03-02T23:33:23.015Z,0.90
2019-03-02T23:35:33.941Z,1.70
2019-03-02T23:37:44.773Z,1.90
2019-03-02T23:39:55.579Z,2.27
2019-03-02T23:42:06.451Z,1.30
2019-03-02T23:44:17.249Z,2.63
2019-03-02T23:46:28.077Z,1.30
2019-03-02T23:48:38.887Z,1.13
2019-03-02T23:50:49.686Z,2.23
2019-03-02T23:53:00.522Z,1.30
2019-03-02T23:55:52.980Z,1.23
2019-03-02T23:58:45.443Z,1.97
